sensor_id;sensor_type;location;lat;lon;timestamp;P1;durP1;ratioP1;P2;durP2;ratioP2
55003;SDS011;40900;52.710;6.438;2023-03-24T00:02:15;19.58;;;6.60;;
55003;SDS011;40900;52.710;6.438;2023-03-24T00:04:42;11.57;;;5.55;;
55003;SDS011;40900;52.710;6.438;2023-03-24T00:07:10;15.75;;;5.80;;
55003;SDS011;40900;52.710;6.438;2023-03-24T00:09:39;13.07;;;5.20;;
55003;SDS011;40900;52.710;6.438;2023-03-24T00:12:06;16.75;;;5.75;;
55003;SDS011;40900;52.710;6.438;2023-03-24T00:14:36;13.45;;;5.85;;
55003;SDS011;40900;52.710;6.438;2023-03-24T00:17:05;8.30;;;4.80;;
55003;SDS011;40900;52.710;6.438;2023-03-24T00:19:34;9.70;;;5.60;;
55003;SDS011;40900;52.710;6.438;2023-03-24T00:22:07;14.38;;;5.90;;
55003;SDS011;40900;52.710;6.438;2023-03-24T00:24:38;12.27;;;4.93;;
55003;SDS011;40900;52.710;6.438;2023-03-24T00:27:05;11.32;;;5.65;;
55003;SDS011;40900;52.710;6.438;2023-03-24T00:29:31;10.30;;;5.15;;
55003;SDS011;40900;52.710;6.438;2023-03-24T00:31:57;14.40;;;6.03;;
55003;SDS011;40900;52.710;6.438;2023-03-24T00:34:24;8.95;;;5.30;;
55003;SDS011;40900;52.710;6.438;2023-03-24T00:36:50;13.75;;;5.35;;
55003;SDS011;40900;52.710;6.438;2023-03-24T00:39:17;11.40;;;5.30;;
55003;SDS011;40900;52.710;6.438;2023-03-24T00:41:44;12.02;;;5.00;;
55003;SDS011;40900;52.710;6.438;2023-03-24T00:44:12;9.23;;;5.05;;
55003;SDS011;40900;52.710;6.438;2023-03-24T00:46:48;9.88;;;4.88;;
55003;SDS011;40900;52.710;6.438;2023-03-24T00:49:19;11.05;;;4.68;;
55003;SDS011;40900;52.710;6.438;2023-03-24T00:54:45;9.93;;;5.13;;
55003;SDS011;40900;52.710;6.438;2023-03-24T00:57:13;10.15;;;4.70;;
55003;SDS011;40900;52.710;6.438;2023-03-24T00:59:46;8.55;;;4.90;;
55003;SDS011;40900;52.710;6.438;2023-03-24T01:02:20;11.82;;;5.07;;
55003;SDS011;40900;52.710;6.438;2023-03-24T01:04:55;9.80;;;5.35;;
55003;SDS011;40900;52.710;6.438;2023-03-24T01:07:22;12.48;;;5.75;;
55003;SDS011;40900;52.710;6.438;2023-03-24T01:09:50;13.43;;;5.25;;
55003;SDS011;40900;52.710;6.438;2023-03-24T01:12:22;13.32;;;5.60;;
55003;SDS011;40900;52.710;6.438;2023-03-24T01:14:49;10.05;;;5.43;;
55003;SDS011;40900;52.710;6.438;2023-03-24T01:17:17;11.10;;;5.10;;
55003;SDS011;40900;52.710;6.438;2023-03-24T01:19:43;12.25;;;5.05;;
55003;SDS011;40900;52.710;6.438;2023-03-24T01:22:09;12.80;;;5.07;;
55003;SDS011;40900;52.710;6.438;2023-03-24T01:24:36;8.75;;;4.80;;
55003;SDS011;40900;52.710;6.438;2023-03-24T01:27:02;10.68;;;5.40;;
55003;SDS011;40900;52.710;6.438;2023-03-24T01:29:28;10.07;;;4.93;;
55003;SDS011;40900;52.710;6.438;2023-03-24T01:31:54;9.20;;;5.07;;
55003;SDS011;40900;52.710;6.438;2023-03-24T01:34:20;11.27;;;5.25;;
55003;SDS011;40900;52.710;6.438;2023-03-24T01:36:46;10.10;;;5.35;;
55003;SDS011;40900;52.710;6.438;2023-03-24T01:39:11;9.80;;;4.80;;
55003;SDS011;40900;52.710;6.438;2023-03-24T01:41:38;6.95;;;5.10;;
55003;SDS011;40900;52.710;6.438;2023-03-24T01:46:59;11.17;;;4.83;;
55003;SDS011;40900;52.710;6.438;2023-03-24T01:49:31;7.90;;;4.70;;
55003;SDS011;40900;52.710;6.438;2023-03-24T01:52:02;11.15;;;5.47;;
55003;SDS011;40900;52.710;6.438;2023-03-24T01:54:39;10.40;;;5.00;;
55003;SDS011;40900;52.710;6.438;2023-03-24T01:57:13;11.30;;;5.40;;
55003;SDS011;40900;52.710;6.438;2023-03-24T01:59:53;9.98;;;4.90;;
55003;SDS011;40900;52.710;6.438;2023-03-24T02:02:21;7.90;;;4.90;;
55003;SDS011;40900;52.710;6.438;2023-03-24T02:04:49;8.93;;;4.45;;
55003;SDS011;40900;52.710;6.438;2023-03-24T02:10:03;9.98;;;5.65;;
55003;SDS011;40900;52.710;6.438;2023-03-24T02:12:31;8.52;;;5.18;;
55003;SDS011;40900;52.710;6.438;2023-03-24T02:14:57;7.95;;;4.75;;
55003;SDS011;40900;52.710;6.438;2023-03-24T02:32:17;7.97;;;5.18;;
55003;SDS011;40900;52.710;6.438;2023-03-24T02:48:22;6.75;;;4.90;;
55003;SDS011;40900;52.710;6.438;2023-03-24T02:58:41;10.23;;;5.30;;
55003;SDS011;40900;52.710;6.438;2023-03-24T03:01:22;6.90;;;5.32;;
55003;SDS011;40900;52.710;6.438;2023-03-24T03:03:57;8.68;;;5.15;;
55003;SDS011;40900;52.710;6.438;2023-03-24T03:06:28;7.15;;;4.75;;
55003;SDS011;40900;52.710;6.438;2023-03-24T03:08:57;7.45;;;5.07;;
55003;SDS011;40900;52.710;6.438;2023-03-24T03:11:26;10.27;;;5.45;;
55003;SDS011;40900;52.710;6.438;2023-03-24T03:13:53;9.48;;;5.30;;
55003;SDS011;40900;52.710;6.438;2023-03-24T03:16:34;8.35;;;5.13;;
55003;SDS011;40900;52.710;6.438;2023-03-24T03:19:09;9.10;;;5.43;;
55003;SDS011;40900;52.710;6.438;2023-03-24T03:21:43;9.18;;;5.20;;
55003;SDS011;40900;52.710;6.438;2023-03-24T03:24:12;8.95;;;5.40;;
55003;SDS011;40900;52.710;6.438;2023-03-24T03:27:34;7.68;;;5.35;;
55003;SDS011;40900;52.710;6.438;2023-03-24T03:32:44;8.20;;;5.95;;
55003;SDS011;40900;52.710;6.438;2023-03-24T03:35:23;6.53;;;4.85;;
55003;SDS011;40900;52.710;6.438;2023-03-24T03:38:05;5.57;;;4.57;;
55003;SDS011;40900;52.710;6.438;2023-03-24T03:43:19;6.28;;;3.90;;
55003;SDS011;40900;52.710;6.438;2023-03-24T03:45:46;5.47;;;3.60;;
55003;SDS011;40900;52.710;6.438;2023-03-24T03:48:12;6.32;;;3.22;;
55003;SDS011;40900;52.710;6.438;2023-03-24T03:50:39;5.13;;;3.08;;
55003;SDS011;40900;52.710;6.438;2023-03-24T03:53:05;5.68;;;2.28;;
55003;SDS011;40900;52.710;6.438;2023-03-24T03:55:32;7.50;;;2.28;;
55003;SDS011;40900;52.710;6.438;2023-03-24T03:57:59;9.00;;;2.30;;
55003;SDS011;40900;52.710;6.438;2023-03-24T04:00:27;6.85;;;2.28;;
55003;SDS011;40900;52.710;6.438;2023-03-24T04:03:00;10.60;;;2.85;;
55003;SDS011;40900;52.710;6.438;2023-03-24T04:11:03;10.90;;;3.55;;
55003;SDS011;40900;52.710;6.438;2023-03-24T04:13:38;13.38;;;2.97;;
55003;SDS011;40900;52.710;6.438;2023-03-24T04:16:30;7.68;;;2.10;;
55003;SDS011;40900;52.710;6.438;2023-03-24T04:27:38;8.70;;;3.00;;
55003;SDS011;40900;52.710;6.438;2023-03-24T04:36:04;9.75;;;2.63;;
55003;SDS011;40900;52.710;6.438;2023-03-24T04:38:47;9.40;;;2.42;;
55003;SDS011;40900;52.710;6.438;2023-03-24T04:41:17;11.27;;;2.63;;
55003;SDS011;40900;52.710;6.438;2023-03-24T04:43:49;9.32;;;2.20;;
55003;SDS011;40900;52.710;6.438;2023-03-24T04:46:17;12.50;;;2.95;;
55003;SDS011;40900;52.710;6.438;2023-03-24T04:48:43;6.70;;;2.67;;
55003;SDS011;40900;52.710;6.438;2023-03-24T04:51:12;10.90;;;3.05;;
55003;SDS011;40900;52.710;6.438;2023-03-24T04:53:39;8.85;;;2.95;;
55003;SDS011;40900;52.710;6.438;2023-03-24T04:58:55;11.65;;;3.35;;
55003;SDS011;40900;52.710;6.438;2023-03-24T05:01:23;10.90;;;3.28;;
55003;SDS011;40900;52.710;6.438;2023-03-24T05:03:55;15.43;;;3.65;;
55003;SDS011;40900;52.710;6.438;2023-03-24T05:06:21;14.93;;;3.60;;
55003;SDS011;40900;52.710;6.438;2023-03-24T05:08:48;14.63;;;3.53;;
55003;SDS011;40900;52.710;6.438;2023-03-24T05:11:13;15.85;;;3.22;;
55003;SDS011;40900;52.710;6.438;2023-03-24T05:13:39;14.35;;;2.92;;
55003;SDS011;40900;52.710;6.438;2023-03-24T05:16:05;15.75;;;3.80;;
55003;SDS011;40900;52.710;6.438;2023-03-24T05:18:31;12.90;;;2.83;;
55003;SDS011;40900;52.710;6.438;2023-03-24T05:20:57;11.52;;;3.22;;
55003;SDS011;40900;52.710;6.438;2023-03-24T05:23:24;14.02;;;4.32;;
55003;SDS011;40900;52.710;6.438;2023-03-24T05:25:50;11.98;;;3.25;;
55003;SDS011;40900;52.710;6.438;2023-03-24T05:28:15;12.35;;;3.10;;
55003;SDS011;40900;52.710;6.438;2023-03-24T05:30:41;15.65;;;2.90;;
55003;SDS011;40900;52.710;6.438;2023-03-24T05:33:07;10.38;;;3.13;;
55003;SDS011;40900;52.710;6.438;2023-03-24T05:35:32;9.98;;;2.53;;
55003;SDS011;40900;52.710;6.438;2023-03-24T05:37:58;10.63;;;3.25;;
55003;SDS011;40900;52.710;6.438;2023-03-24T05:40:24;12.13;;;2.70;;
55003;SDS011;40900;52.710;6.438;2023-03-24T05:42:50;11.15;;;2.65;;
55003;SDS011;40900;52.710;6.438;2023-03-24T05:45:16;13.20;;;3.10;;
55003;SDS011;40900;52.710;6.438;2023-03-24T05:47:42;12.40;;;2.92;;
55003;SDS011;40900;52.710;6.438;2023-03-24T05:50:07;11.82;;;3.13;;
55003;SDS011;40900;52.710;6.438;2023-03-24T05:52:33;13.63;;;2.40;;
55003;SDS011;40900;52.710;6.438;2023-03-24T05:55:00;16.23;;;3.25;;
55003;SDS011;40900;52.710;6.438;2023-03-24T05:57:26;14.13;;;3.33;;
55003;SDS011;40900;52.710;6.438;2023-03-24T05:59:54;12.57;;;3.42;;
55003;SDS011;40900;52.710;6.438;2023-03-24T06:02:22;16.85;;;3.25;;
55003;SDS011;40900;52.710;6.438;2023-03-24T06:04:48;11.60;;;2.70;;
55003;SDS011;40900;52.710;6.438;2023-03-24T06:07:16;12.70;;;2.95;;
55003;SDS011;40900;52.710;6.438;2023-03-24T06:09:42;13.48;;;3.17;;
55003;SDS011;40900;52.710;6.438;2023-03-24T06:12:11;11.68;;;2.90;;
55003;SDS011;40900;52.710;6.438;2023-03-24T06:14:37;12.00;;;3.38;;
55003;SDS011;40900;52.710;6.438;2023-03-24T06:17:06;13.18;;;3.47;;
55003;SDS011;40900;52.710;6.438;2023-03-24T06:19:32;13.30;;;2.88;;
55003;SDS011;40900;52.710;6.438;2023-03-24T06:21:59;16.15;;;3.85;;
55003;SDS011;40900;52.710;6.438;2023-03-24T06:24:27;14.57;;;3.35;;
55003;SDS011;40900;52.710;6.438;2023-03-24T06:26:53;16.35;;;3.65;;
55003;SDS011;40900;52.710;6.438;2023-03-24T06:29:23;13.85;;;3.78;;
55003;SDS011;40900;52.710;6.438;2023-03-24T06:31:49;15.05;;;2.92;;
55003;SDS011;40900;52.710;6.438;2023-03-24T06:34:15;9.68;;;2.95;;
55003;SDS011;40900;52.710;6.438;2023-03-24T06:36:40;20.05;;;4.05;;
55003;SDS011;40900;52.710;6.438;2023-03-24T06:39:06;15.20;;;3.58;;
55003;SDS011;40900;52.710;6.438;2023-03-24T06:41:32;21.63;;;3.20;;
55003;SDS011;40900;52.710;6.438;2023-03-24T06:43:58;15.48;;;3.30;;
55003;SDS011;40900;52.710;6.438;2023-03-24T06:46:25;18.23;;;4.15;;
55003;SDS011;40900;52.710;6.438;2023-03-24T06:48:50;17.80;;;3.63;;
55003;SDS011;40900;52.710;6.438;2023-03-24T06:51:16;15.30;;;3.28;;
55003;SDS011;40900;52.710;6.438;2023-03-24T06:53:42;14.40;;;3.42;;
55003;SDS011;40900;52.710;6.438;2023-03-24T06:56:09;23.27;;;7.57;;
55003;SDS011;40900;52.710;6.438;2023-03-24T06:58:41;17.65;;;3.78;;
55003;SDS011;40900;52.710;6.438;2023-03-24T07:01:07;22.90;;;4.40;;
55003;SDS011;40900;52.710;6.438;2023-03-24T07:03:33;15.63;;;3.33;;
55003;SDS011;40900;52.710;6.438;2023-03-24T07:05:58;18.15;;;3.97;;
55003;SDS011;40900;52.710;6.438;2023-03-24T07:08:24;20.52;;;3.90;;
55003;SDS011;40900;52.710;6.438;2023-03-24T07:10:51;21.70;;;4.47;;
55003;SDS011;40900;52.710;6.438;2023-03-24T07:13:17;20.33;;;3.97;;
55003;SDS011;40900;52.710;6.438;2023-03-24T07:15:43;20.00;;;4.13;;
55003;SDS011;40900;52.710;6.438;2023-03-24T07:18:08;21.35;;;4.40;;
55003;SDS011;40900;52.710;6.438;2023-03-24T07:20:34;22.25;;;4.45;;
55003;SDS011;40900;52.710;6.438;2023-03-24T07:23:00;17.52;;;3.92;;
55003;SDS011;40900;52.710;6.438;2023-03-24T07:25:26;21.30;;;4.20;;
55003;SDS011;40900;52.710;6.438;2023-03-24T07:27:52;30.70;;;5.35;;
55003;SDS011;40900;52.710;6.438;2023-03-24T07:30:20;25.88;;;4.82;;
55003;SDS011;40900;52.710;6.438;2023-03-24T07:32:46;29.00;;;5.18;;
55003;SDS011;40900;52.710;6.438;2023-03-24T07:35:13;26.15;;;5.32;;
55003;SDS011;40900;52.710;6.438;2023-03-24T07:37:43;34.92;;;5.75;;
55003;SDS011;40900;52.710;6.438;2023-03-24T07:40:09;18.48;;;4.93;;
55003;SDS011;40900;52.710;6.438;2023-03-24T07:42:40;23.83;;;4.68;;
55003;SDS011;40900;52.710;6.438;2023-03-24T07:45:10;24.45;;;4.57;;
55003;SDS011;40900;52.710;6.438;2023-03-24T07:47:37;32.47;;;4.55;;
55003;SDS011;40900;52.710;6.438;2023-03-24T07:50:06;25.25;;;4.47;;
55003;SDS011;40900;52.710;6.438;2023-03-24T07:52:39;28.20;;;4.68;;
55003;SDS011;40900;52.710;6.438;2023-03-24T07:55:06;27.05;;;5.05;;
55003;SDS011;40900;52.710;6.438;2023-03-24T07:57:34;21.38;;;4.95;;
55003;SDS011;40900;52.710;6.438;2023-03-24T08:00:04;23.38;;;5.32;;
55003;SDS011;40900;52.710;6.438;2023-03-24T08:02:42;23.75;;;4.68;;
55003;SDS011;40900;52.710;6.438;2023-03-24T08:05:10;22.92;;;4.75;;
55003;SDS011;40900;52.710;6.438;2023-03-24T08:07:38;27.80;;;5.60;;
55003;SDS011;40900;52.710;6.438;2023-03-24T08:10:07;28.65;;;5.80;;
55003;SDS011;40900;52.710;6.438;2023-03-24T08:12:38;25.83;;;5.57;;
55003;SDS011;40900;52.710;6.438;2023-03-24T08:15:06;26.15;;;5.15;;
55003;SDS011;40900;52.710;6.438;2023-03-24T08:17:33;22.13;;;5.32;;
55003;SDS011;40900;52.710;6.438;2023-03-24T08:19:59;24.75;;;4.68;;
55003;SDS011;40900;52.710;6.438;2023-03-24T08:22:26;20.42;;;4.68;;
55003;SDS011;40900;52.710;6.438;2023-03-24T08:24:52;24.98;;;4.72;;
55003;SDS011;40900;52.710;6.438;2023-03-24T08:27:17;22.55;;;4.15;;
55003;SDS011;40900;52.710;6.438;2023-03-24T08:29:43;19.23;;;4.53;;
55003;SDS011;40900;52.710;6.438;2023-03-24T08:32:09;22.20;;;4.93;;
55003;SDS011;40900;52.710;6.438;2023-03-24T08:34:35;25.95;;;5.05;;
55003;SDS011;40900;52.710;6.438;2023-03-24T08:37:01;26.92;;;4.75;;
55003;SDS011;40900;52.710;6.438;2023-03-24T08:39:26;17.10;;;4.70;;
55003;SDS011;40900;52.710;6.438;2023-03-24T08:41:56;22.23;;;4.55;;
55003;SDS011;40900;52.710;6.438;2023-03-24T08:44:22;25.13;;;5.25;;
55003;SDS011;40900;52.710;6.438;2023-03-24T08:46:48;15.63;;;4.47;;
55003;SDS011;40900;52.710;6.438;2023-03-24T08:49:13;23.45;;;5.18;;
55003;SDS011;40900;52.710;6.438;2023-03-24T08:51:39;20.00;;;4.35;;
55003;SDS011;40900;52.710;6.438;2023-03-24T08:54:05;21.75;;;4.78;;
55003;SDS011;40900;52.710;6.438;2023-03-24T08:56:31;21.80;;;4.53;;
55003;SDS011;40900;52.710;6.438;2023-03-24T08:58:57;20.80;;;4.38;;
55003;SDS011;40900;52.710;6.438;2023-03-24T09:01:23;18.83;;;4.20;;
55003;SDS011;40900;52.710;6.438;2023-03-24T09:03:49;17.40;;;3.83;;
55003;SDS011;40900;52.710;6.438;2023-03-24T09:06:15;22.05;;;4.63;;
55003;SDS011;40900;52.710;6.438;2023-03-24T09:08:41;17.92;;;4.25;;
55003;SDS011;40900;52.710;6.438;2023-03-24T09:11:11;23.50;;;3.97;;
55003;SDS011;40900;52.710;6.438;2023-03-24T09:13:42;20.30;;;4.32;;
55003;SDS011;40900;52.710;6.438;2023-03-24T09:16:08;18.73;;;4.43;;
55003;SDS011;40900;52.710;6.438;2023-03-24T09:18:34;23.98;;;5.07;;
55003;SDS011;40900;52.710;6.438;2023-03-24T09:21:01;18.05;;;3.97;;
55003;SDS011;40900;52.710;6.438;2023-03-24T09:23:27;20.35;;;4.15;;
55003;SDS011;40900;52.710;6.438;2023-03-24T09:25:56;21.65;;;4.82;;
55003;SDS011;40900;52.710;6.438;2023-03-24T09:28:22;18.67;;;4.85;;
55003;SDS011;40900;52.710;6.438;2023-03-24T09:30:48;14.43;;;4.25;;
55003;SDS011;40900;52.710;6.438;2023-03-24T09:33:14;19.55;;;4.07;;
55003;SDS011;40900;52.710;6.438;2023-03-24T09:35:41;18.85;;;4.40;;
55003;SDS011;40900;52.710;6.438;2023-03-24T09:38:07;18.45;;;5.10;;
55003;SDS011;40900;52.710;6.438;2023-03-24T09:40:36;18.77;;;4.05;;
55003;SDS011;40900;52.710;6.438;2023-03-24T09:43:07;21.75;;;4.28;;
55003;SDS011;40900;52.710;6.438;2023-03-24T09:45:50;24.50;;;5.25;;
55003;SDS011;40900;52.710;6.438;2023-03-24T09:51:24;14.27;;;3.67;;
55003;SDS011;40900;52.710;6.438;2023-03-24T09:56:55;19.10;;;3.70;;
55003;SDS011;40900;52.710;6.438;2023-03-24T10:01:58;14.50;;;4.40;;
55003;SDS011;40900;52.710;6.438;2023-03-24T10:04:25;15.60;;;4.13;;
55003;SDS011;40900;52.710;6.438;2023-03-24T10:06:58;14.00;;;3.88;;
55003;SDS011;40900;52.710;6.438;2023-03-24T10:09:34;16.58;;;3.85;;
55003;SDS011;40900;52.710;6.438;2023-03-24T10:20:37;16.17;;;4.00;;
55003;SDS011;40900;52.710;6.438;2023-03-24T10:26:04;15.73;;;3.47;;
55003;SDS011;40900;52.710;6.438;2023-03-24T10:29:08;16.20;;;3.90;;
55003;SDS011;40900;52.710;6.438;2023-03-24T10:31:57;14.35;;;3.40;;
55003;SDS011;40900;52.710;6.438;2023-03-24T10:34:30;17.30;;;3.60;;
55003;SDS011;40900;52.710;6.438;2023-03-24T10:36:58;11.65;;;3.35;;
55003;SDS011;40900;52.710;6.438;2023-03-24T10:39:26;16.02;;;3.65;;
55003;SDS011;40900;52.710;6.438;2023-03-24T10:41:53;13.73;;;3.65;;
55003;SDS011;40900;52.710;6.438;2023-03-24T10:44:19;14.43;;;3.78;;
55003;SDS011;40900;52.710;6.438;2023-03-24T10:46:47;16.80;;;3.60;;
55003;SDS011;40900;52.710;6.438;2023-03-24T10:49:17;16.38;;;3.65;;
55003;SDS011;40900;52.710;6.438;2023-03-24T10:51:45;13.48;;;3.63;;
55003;SDS011;40900;52.710;6.438;2023-03-24T10:56:43;14.77;;;3.25;;
55003;SDS011;40900;52.710;6.438;2023-03-24T11:01:57;13.45;;;3.40;;
55003;SDS011;40900;52.710;6.438;2023-03-24T11:04:25;16.60;;;3.33;;
55003;SDS011;40900;52.710;6.438;2023-03-24T11:06:56;13.30;;;2.90;;
55003;SDS011;40900;52.710;6.438;2023-03-24T11:12:30;14.65;;;3.47;;
55003;SDS011;40900;52.710;6.438;2023-03-24T11:15:14;14.05;;;3.10;;
55003;SDS011;40900;52.710;6.438;2023-03-24T11:23:02;16.08;;;3.70;;
55003;SDS011;40900;52.710;6.438;2023-03-24T11:25:34;14.23;;;3.92;;
55003;SDS011;40900;52.710;6.438;2023-03-24T11:28:12;16.23;;;3.63;;
55003;SDS011;40900;52.710;6.438;2023-03-24T11:30:47;15.02;;;3.03;;
55003;SDS011;40900;52.710;6.438;2023-03-24T11:34:01;17.40;;;3.55;;
55003;SDS011;40900;52.710;6.438;2023-03-24T11:38:58;11.48;;;3.20;;
55003;SDS011;40900;52.710;6.438;2023-03-24T11:47:12;15.35;;;3.15;;
55003;SDS011;40900;52.710;6.438;2023-03-24T11:52:41;14.50;;;3.60;;
55003;SDS011;40900;52.710;6.438;2023-03-24T11:55:31;11.75;;;2.92;;
55003;SDS011;40900;52.710;6.438;2023-03-24T11:58:25;13.38;;;3.08;;
55003;SDS011;40900;52.710;6.438;2023-03-24T12:00:54;15.07;;;3.10;;
55003;SDS011;40900;52.710;6.438;2023-03-24T12:03:37;13.75;;;3.40;;
55003;SDS011;40900;52.710;6.438;2023-03-24T12:09:31;15.43;;;3.38;;
55003;SDS011;40900;52.710;6.438;2023-03-24T12:14:53;10.98;;;2.70;;
55003;SDS011;40900;52.710;6.438;2023-03-24T12:20:39;15.10;;;3.30;;
55003;SDS011;40900;52.710;6.438;2023-03-24T12:26:30;17.20;;;3.80;;
55003;SDS011;40900;52.710;6.438;2023-03-24T12:34:28;12.57;;;3.10;;
55003;SDS011;40900;52.710;6.438;2023-03-24T12:42:40;15.98;;;3.72;;
55003;SDS011;40900;52.710;6.438;2023-03-24T12:56:06;11.98;;;3.45;;
55003;SDS011;40900;52.710;6.438;2023-03-24T12:58:45;12.10;;;2.88;;
55003;SDS011;40900;52.710;6.438;2023-03-24T13:06:32;19.23;;;4.35;;
55003;SDS011;40900;52.710;6.438;2023-03-24T13:09:09;15.75;;;3.67;;
55003;SDS011;40900;52.710;6.438;2023-03-24T13:17:28;16.08;;;3.47;;
55003;SDS011;40900;52.710;6.438;2023-03-24T13:19:57;12.57;;;3.60;;
55003;SDS011;40900;52.710;6.438;2023-03-24T13:22:25;20.00;;;3.65;;
55003;SDS011;40900;52.710;6.438;2023-03-24T13:24:53;17.95;;;3.75;;
55003;SDS011;40900;52.710;6.438;2023-03-24T13:30:02;12.20;;;3.33;;
55003;SDS011;40900;52.710;6.438;2023-03-24T13:32:57;14.77;;;3.75;;
55003;SDS011;40900;52.710;6.438;2023-03-24T13:39:10;17.98;;;3.70;;
55003;SDS011;40900;52.710;6.438;2023-03-24T13:41:48;14.00;;;3.65;;
55003;SDS011;40900;52.710;6.438;2023-03-24T13:44:19;16.65;;;3.78;;
55003;SDS011;40900;52.710;6.438;2023-03-24T13:49:32;14.88;;;3.88;;
55003;SDS011;40900;52.710;6.438;2023-03-24T13:52:05;19.42;;;3.90;;
55003;SDS011;40900;52.710;6.438;2023-03-24T13:57:17;14.75;;;3.10;;
55003;SDS011;40900;52.710;6.438;2023-03-24T13:59:58;10.35;;;2.85;;
55003;SDS011;40900;52.710;6.438;2023-03-24T14:02:45;15.15;;;2.72;;
55003;SDS011;40900;52.710;6.438;2023-03-24T14:08:32;10.27;;;2.63;;
55003;SDS011;40900;52.710;6.438;2023-03-24T14:11:04;12.27;;;2.38;;
55003;SDS011;40900;52.710;6.438;2023-03-24T14:13:35;15.82;;;2.72;;
55003;SDS011;40900;52.710;6.438;2023-03-24T14:16:26;12.43;;;2.50;;
55003;SDS011;40900;52.710;6.438;2023-03-24T14:19:07;20.33;;;3.65;;
55003;SDS011;40900;52.710;6.438;2023-03-24T14:24:35;14.82;;;3.00;;
55003;SDS011;40900;52.710;6.438;2023-03-24T14:27:29;13.75;;;3.28;;
55003;SDS011;40900;52.710;6.438;2023-03-24T14:30:41;13.55;;;3.78;;
55003;SDS011;40900;52.710;6.438;2023-03-24T14:32:51;14.60;;;3.78;;
55003;SDS011;40900;52.710;6.438;2023-03-24T14:35:21;14.30;;;3.33;;
55003;SDS011;40900;52.710;6.438;2023-03-24T14:38:03;17.95;;;3.97;;
55003;SDS011;40900;52.710;6.438;2023-03-24T14:40:43;15.95;;;3.30;;
55003;SDS011;40900;52.710;6.438;2023-03-24T14:43:23;12.88;;;3.38;;
55003;SDS011;40900;52.710;6.438;2023-03-24T14:45:57;12.18;;;3.30;;
55003;SDS011;40900;52.710;6.438;2023-03-24T14:54:01;17.80;;;3.13;;
55003;SDS011;40900;52.710;6.438;2023-03-24T14:56:34;9.88;;;2.28;;
55003;SDS011;40900;52.710;6.438;2023-03-24T14:59:04;12.48;;;3.03;;
55003;SDS011;40900;52.710;6.438;2023-03-24T15:01:36;14.27;;;2.95;;
55003;SDS011;40900;52.710;6.438;2023-03-24T15:04:09;12.13;;;2.35;;
55003;SDS011;40900;52.710;6.438;2023-03-24T15:06:47;13.55;;;2.90;;
55003;SDS011;40900;52.710;6.438;2023-03-24T15:09:14;12.98;;;2.63;;
55003;SDS011;40900;52.710;6.438;2023-03-24T15:11:41;13.60;;;2.90;;
55003;SDS011;40900;52.710;6.438;2023-03-24T15:14:17;12.50;;;2.55;;
55003;SDS011;40900;52.710;6.438;2023-03-24T15:16:52;15.63;;;3.25;;
55003;SDS011;40900;52.710;6.438;2023-03-24T15:19:22;12.57;;;2.28;;
55003;SDS011;40900;52.710;6.438;2023-03-24T15:21:59;17.80;;;3.28;;
55003;SDS011;40900;52.710;6.438;2023-03-24T15:24:31;17.88;;;3.25;;
55003;SDS011;40900;52.710;6.438;2023-03-24T15:29:31;12.32;;;2.17;;
55003;SDS011;40900;52.710;6.438;2023-03-24T15:31:58;10.82;;;2.13;;
55003;SDS011;40900;52.710;6.438;2023-03-24T15:36:54;11.48;;;2.65;;
55003;SDS011;40900;52.710;6.438;2023-03-24T15:39:26;8.25;;;2.33;;
55003;SDS011;40900;52.710;6.438;2023-03-24T15:41:53;12.13;;;2.60;;
55003;SDS011;40900;52.710;6.438;2023-03-24T15:44:20;12.98;;;3.00;;
55003;SDS011;40900;52.710;6.438;2023-03-24T15:46:52;10.65;;;2.80;;
55003;SDS011;40900;52.710;6.438;2023-03-24T15:49:29;6.25;;;2.15;;
55003;SDS011;40900;52.710;6.438;2023-03-24T15:51:59;9.73;;;2.42;;
55003;SDS011;40900;52.710;6.438;2023-03-24T15:54:28;7.75;;;2.22;;
55003;SDS011;40900;52.710;6.438;2023-03-24T15:57:02;9.15;;;3.17;;
55003;SDS011;40900;52.710;6.438;2023-03-24T15:59:50;9.23;;;2.50;;
55003;SDS011;40900;52.710;6.438;2023-03-24T16:05:03;9.73;;;2.30;;
55003;SDS011;40900;52.710;6.438;2023-03-24T16:07:37;9.23;;;2.35;;
55003;SDS011;40900;52.710;6.438;2023-03-24T16:10:06;10.05;;;2.72;;
55003;SDS011;40900;52.710;6.438;2023-03-24T16:15:58;10.65;;;2.88;;
55003;SDS011;40900;52.710;6.438;2023-03-24T16:18:40;11.23;;;2.53;;
55003;SDS011;40900;52.710;6.438;2023-03-24T16:21:17;8.82;;;2.28;;
55003;SDS011;40900;52.710;6.438;2023-03-24T16:23:43;10.80;;;3.03;;
55003;SDS011;40900;52.710;6.438;2023-03-24T16:26:12;6.97;;;2.10;;
55003;SDS011;40900;52.710;6.438;2023-03-24T16:28:47;11.18;;;2.65;;
55003;SDS011;40900;52.710;6.438;2023-03-24T16:31:19;12.18;;;2.55;;
55003;SDS011;40900;52.710;6.438;2023-03-24T16:33:48;8.85;;;2.40;;
55003;SDS011;40900;52.710;6.438;2023-03-24T16:36:18;9.73;;;2.78;;
55003;SDS011;40900;52.710;6.438;2023-03-24T16:38:46;11.35;;;2.47;;
55003;SDS011;40900;52.710;6.438;2023-03-24T16:41:13;10.32;;;2.22;;
55003;SDS011;40900;52.710;6.438;2023-03-24T16:43:40;7.57;;;2.22;;
55003;SDS011;40900;52.710;6.438;2023-03-24T16:46:49;11.52;;;2.40;;
55003;SDS011;40900;52.710;6.438;2023-03-24T16:48:57;8.60;;;1.92;;
55003;SDS011;40900;52.710;6.438;2023-03-24T16:51:23;6.45;;;2.05;;
55003;SDS011;40900;52.710;6.438;2023-03-24T16:53:49;9.52;;;2.38;;
55003;SDS011;40900;52.710;6.438;2023-03-24T16:56:16;6.35;;;1.92;;
55003;SDS011;40900;52.710;6.438;2023-03-24T16:58:44;8.05;;;1.90;;
55003;SDS011;40900;52.710;6.438;2023-03-24T17:01:16;8.38;;;1.83;;
55003;SDS011;40900;52.710;6.438;2023-03-24T17:04:04;9.00;;;2.80;;
55003;SDS011;40900;52.710;6.438;2023-03-24T17:06:42;7.50;;;2.17;;
55003;SDS011;40900;52.710;6.438;2023-03-24T17:09:09;8.05;;;2.20;;
55003;SDS011;40900;52.710;6.438;2023-03-24T17:11:40;9.40;;;2.75;;
55003;SDS011;40900;52.710;6.438;2023-03-24T17:14:13;9.68;;;2.17;;
55003;SDS011;40900;52.710;6.438;2023-03-24T17:16:40;8.13;;;1.95;;
55003;SDS011;40900;52.710;6.438;2023-03-24T17:19:10;10.10;;;2.17;;
55003;SDS011;40900;52.710;6.438;2023-03-24T17:21:46;12.82;;;2.20;;
55003;SDS011;40900;52.710;6.438;2023-03-24T17:24:12;9.52;;;2.58;;
55003;SDS011;40900;52.710;6.438;2023-03-24T17:26:38;11.73;;;1.95;;
55003;SDS011;40900;52.710;6.438;2023-03-24T17:29:05;11.25;;;2.65;;
55003;SDS011;40900;52.710;6.438;2023-03-24T17:31:33;14.60;;;2.35;;
55003;SDS011;40900;52.710;6.438;2023-03-24T17:33:59;10.75;;;2.33;;
55003;SDS011;40900;52.710;6.438;2023-03-24T17:36:25;10.35;;;2.15;;
55003;SDS011;40900;52.710;6.438;2023-03-24T17:38:50;12.13;;;2.65;;
55003;SDS011;40900;52.710;6.438;2023-03-24T17:41:16;11.35;;;2.90;;
55003;SDS011;40900;52.710;6.438;2023-03-24T17:43:43;15.32;;;3.00;;
55003;SDS011;40900;52.710;6.438;2023-03-24T17:46:09;13.13;;;2.28;;
55003;SDS011;40900;52.710;6.438;2023-03-24T17:48:35;12.00;;;2.15;;
55003;SDS011;40900;52.710;6.438;2023-03-24T17:51:01;11.05;;;2.70;;
55003;SDS011;40900;52.710;6.438;2023-03-24T17:53:28;10.82;;;2.72;;
55003;SDS011;40900;52.710;6.438;2023-03-24T17:55:54;13.18;;;2.70;;
55003;SDS011;40900;52.710;6.438;2023-03-24T17:58:22;10.30;;;2.60;;
55003;SDS011;40900;52.710;6.438;2023-03-24T18:00:49;13.68;;;2.55;;
55003;SDS011;40900;52.710;6.438;2023-03-24T18:03:15;10.50;;;3.15;;
55003;SDS011;40900;52.710;6.438;2023-03-24T18:05:41;9.98;;;2.40;;
55003;SDS011;40900;52.710;6.438;2023-03-24T18:08:07;10.30;;;2.80;;
55003;SDS011;40900;52.710;6.438;2023-03-24T18:10:33;15.65;;;3.17;;
55003;SDS011;40900;52.710;6.438;2023-03-24T18:13:03;13.50;;;3.25;;
55003;SDS011;40900;52.710;6.438;2023-03-24T18:15:30;11.98;;;2.60;;